Time;durP1;ratioP1;P1;durP2;ratioP2;P2;SDS_P1;SDS_P2;PMS_P1;PMS_P2;Temp;Humidity;BMP_temperature;BMP_pressure;BME280_temperature;BME280_humidity;BME280_pressure;Samples;Min_cycle;Max_cycle;Signal;HPM_P1;HPM_P2
2022/07/31 00:01:22;;;;;;;5.10;1.50;;;;;;;20.60;57.13;100449.28;5094945;28;20078;-79
2022/07/31 00:03:48;;;;;;;5.32;2.45;;;;;;;20.67;56.80;100444.56;5113283;28;20050;-78
2022/07/31 00:06:13;;;;;;;;;;;;;;;20.69;56.62;100442.19;5113198;28;20023;-79
2022/07/31 00:08:39;;;;;;;3.00;1.30;;;;;;;20.71;56.01;100439.03;5112858;28;20304;-79
2022/07/31 00:11:04;;;;;;;2.85;1.23;;;;;;;20.68;56.40;100442.59;5112841;28;20165;-79
2022/07/31 00:13:29;;;;;;;;;;;;;;;20.63;55.93;100435.44;5113597;28;20024;-78
2022/07/31 00:15:55;;;;;;;2.80;1.07;;;;;;;20.67;55.81;100441.81;5112960;28;19908;-79
2022/07/31 00:18:20;;;;;;;3.38;1.23;;;;;;;20.67;55.96;100441.00;5112546;28;20047;-79
2022/07/31 00:20:46;;;;;;;2.65;1.38;;;;;;;20.66;55.93;100436.66;5112922;28;20051;-79
2022/07/31 00:23:11;;;;;;;3.70;1.52;;;;;;;20.62;56.43;100435.84;5113123;28;20031;-79
2022/07/31 00:25:37;;;;;;;3.30;1.38;;;;;;;20.52;56.89;100431.91;5113407;28;20367;-79
2022/07/31 00:28:03;;;;;;;3.38;1.33;;;;;;;20.47;57.21;100423.97;5116632;28;20032;-79
2022/07/31 00:30:29;;;;;;;3.67;1.42;;;;;;;20.38;58.02;100434.63;5098267;28;20034;-79
2022/07/31 00:32:54;;;;;;;3.50;1.73;;;;;;;20.30;58.28;100431.03;5116643;28;20039;-79
2022/07/31 00:35:19;;;;;;;3.90;1.60;;;;;;;20.34;58.57;100422.78;5116458;28;20053;-79
2022/07/31 00:37:45;;;;;;;4.10;1.60;;;;;;;20.25;58.69;100425.13;5116826;28;20031;-79
2022/07/31 00:40:12;;;;;;;;;;;;;;;20.19;58.75;100421.97;5117102;28;20076;-79
2022/07/31 00:42:38;;;;;;;;;;;;;;;20.09;58.47;100426.28;5116923;28;20274;-78
2022/07/31 00:45:04;;;;;;;3.83;1.40;;;;;;;20.11;58.34;100423.91;5116711;28;19912;-79
2022/07/31 00:47:29;;;;;;;3.60;1.45;;;;;;;20.10;58.17;100419.56;5116862;28;20032;-79
2022/07/31 00:49:55;;;;;;;4.82;1.40;;;;;;;20.16;58.03;100416.44;5116282;28;20054;-79
2022/07/31 00:52:21;;;;;;;;;;;;;;;20.16;57.78;100411.69;5116703;28;20043;-79
2022/07/31 00:54:46;;;;;;;4.47;1.30;;;;;;;20.17;57.54;100412.50;5116002;28;20349;-79
2022/07/31 00:57:12;;;;;;;3.55;1.48;;;;;;;20.19;57.59;100404.59;5116306;28;20028;-78
2022/07/31 00:59:37;;;;;;;2.63;1.20;;;;;;;20.09;57.50;100409.69;5116052;28;20066;-79
2022/07/31 01:02:03;;;;;;;3.63;1.45;;;;;;;20.07;57.46;100406.53;5116218;28;20067;-79
2022/07/31 01:04:28;;;;;;;;;;;;;;;20.05;57.45;100406.13;5116486;28;20034;-79
2022/07/31 01:06:54;;;;;;;3.10;1.20;;;;;;;20.08;57.43;100404.56;5116199;28;19998;-79
2022/07/31 01:09:20;;;;;;;3.03;1.50;;;;;;;20.10;57.48;100405.75;5115928;28;20429;-78
2022/07/31 01:12:06;;;;;;;2.45;1.15;;;;;;;20.07;57.66;100401.00;5116041;28;20110;-79
2022/07/31 01:14:37;;;;;;;3.28;1.60;;;;;;;20.04;57.71;100404.56;5116138;28;20085;-79
2022/07/31 01:17:05;;;;;;;4.03;1.30;;;;;;;20.02;57.88;100401.41;5115935;28;20063;-79
2022/07/31 01:19:42;;;;;;;4.65;1.60;;;;;;;20.07;57.88;100394.69;5116011;28;20051;-79
2022/07/31 01:22:29;;;;;;;3.47;1.40;;;;;;;19.99;58.08;100396.66;5097628;28;20027;-78
2022/07/31 01:25:10;;;;;;;3.38;1.55;;;;;;;19.96;58.44;100402.94;5115683;28;20031;-78
2022/07/31 01:28:00;;;;;;;4.22;1.52;;;;;;;19.98;58.24;100406.09;5115738;28;20044;-78
2022/07/31 01:30:32;;;;;;;3.42;1.45;;;;;;;19.96;58.55;100399.41;5097132;28;20028;-79
2022/07/31 01:33:05;;;;;;;5.07;1.50;;;;;;;19.99;58.52;100399.44;5115526;28;20043;-79
2022/07/31 01:35:37;;;;;;;4.05;1.50;;;;;;;19.95;58.62;100393.06;5115623;28;20502;-78
2022/07/31 01:38:10;;;;;;;5.28;1.65;;;;;;;19.89;58.80;100394.66;5096080;28;20032;-79
2022/07/31 01:40:45;;;;;;;3.33;1.52;;;;;;;19.90;59.20;100387.94;5115337;28;20126;-79
2022/07/31 01:43:15;;;;;;;3.60;1.50;;;;;;;19.93;59.01;100389.91;5096997;28;20081;-78
2022/07/31 01:45:44;;;;;;;3.22;1.45;;;;;;;19.89;59.30;100393.88;5115388;28;20039;-78
2022/07/31 01:48:13;;;;;;;2.80;1.30;;;;;;;19.78;59.58;100385.53;5115328;28;20062;-78
2022/07/31 01:50:40;;;;;;;3.22;1.42;;;;;;;19.82;59.49;100386.34;5114990;28;20046;-78
2022/07/31 01:53:07;;;;;;;4.00;1.50;;;;;;;19.78;59.58;100386.31;5114940;28;20039;-78
2022/07/31 01:55:35;;;;;;;3.25;1.50;;;;;;;19.74;59.94;100380.00;5097196;28;20128;-78
2022/07/31 01:58:02;;;;;;;3.38;1.50;;;;;;;19.75;59.99;100380.78;5096774;28;20027;-79
2022/07/31 02:00:28;;;;;;;4.20;1.40;;;;;;;19.74;59.87;100382.75;5115153;28;20035;-79
2022/07/31 02:02:55;;;;;;;3.13;1.50;;;;;;;19.66;60.21;100378.41;5115092;28;20036;-79
2022/07/31 02:05:22;;;;;;;3.08;1.23;;;;;;;19.61;60.23;100381.53;5096536;28;20024;-79
2022/07/31 02:07:49;;;;;;;4.28;1.60;;;;;;;19.61;59.79;100380.75;5114910;28;20031;-79
2022/07/31 02:10:17;;;;;;;3.47;1.67;;;;;;;19.63;59.60;100372.84;5096578;28;20027;-78
2022/07/31 02:12:43;;;;;;;3.63;1.40;;;;;;;19.64;59.94;100374.44;5096487;28;20028;-78
2022/07/31 02:15:12;;;;;;;5.85;1.50;;;;;;;19.68;59.46;100375.25;5114436;28;20432;-79
2022/07/31 02:17:38;;;;;;;3.05;1.40;;;;;;;19.77;59.41;100373.69;5114549;28;20104;-79
2022/07/31 02:20:06;;;;;;;3.33;1.38;;;;;;;19.72;59.76;100370.53;5114076;28;20077;-78
2022/07/31 02:22:33;;;;;;;3.20;1.60;;;;;;;19.70;60.04;100370.91;5114166;28;20031;-78
2022/07/31 02:24:58;;;;;;;3.17;1.45;;;;;;;19.65;60.36;100370.50;5114736;28;20027;-78
2022/07/31 02:27:25;;;;;;;3.45;1.60;;;;;;;19.60;61.02;100362.59;5114265;28;20032;-78
2022/07/31 02:29:52;;;;;;;3.08;1.50;;;;;;;19.48;61.32;100363.69;5114310;28;20027;-78
2022/07/31 02:32:18;;;;;;;3.70;1.75;;;;;;;19.37;61.82;100365.63;5114010;28;20038;-78
2022/07/31 02:34:45;;;;;;;3.25;1.42;;;;;;;19.30;62.41;100360.84;5114032;28;20364;-78
2022/07/31 02:37:12;;;;;;;3.80;1.80;;;;;;;19.20;63.14;100356.09;5114194;28;20036;-78
2022/07/31 02:39:38;;;;;;;3.92;1.67;;;;;;;19.06;63.87;100354.06;5113897;28;20118;-78
2022/07/31 02:42:04;;;;;;;4.65;1.73;;;;;;;19.03;63.86;100352.06;5095733;28;20024;-78
2022/07/31 02:44:31;;;;;;;3.88;1.70;;;;;;;19.00;63.83;100354.81;5113742;28;20039;-78
2022/07/31 02:46:58;;;;;;;4.90;1.30;;;;;;;19.05;63.56;100351.69;5095827;28;20535;-78
2022/07/31 02:49:24;;;;;;;4.00;1.75;;;;;;;19.09;63.08;100344.19;5113840;28;20042;-78
2022/07/31 02:51:50;;;;;;;3.30;1.40;;;;;;;19.14;63.02;100343.81;5113629;28;20108;-79
2022/07/31 02:54:17;;;;;;;3.60;1.70;;;;;;;19.03;62.96;100341.03;5113850;28;20420;-79
2022/07/31 02:56:43;;;;;;;3.58;1.60;;;;;;;18.92;62.27;100338.19;5113948;28;20028;-79
2022/07/31 02:59:09;;;;;;;2.95;1.20;;;;;;;18.85;62.03;100348.41;5113858;28;20039;-79
2022/07/31 03:01:35;;;;;;;3.97;1.60;;;;;;;18.73;62.27;100340.44;5113509;28;20035;-78
2022/07/31 03:04:01;;;;;;;2.83;1.17;;;;;;;18.80;61.42;100344.03;5113667;28;20027;-79
2022/07/31 03:06:26;;;;;;;;;;;;;;;18.80;61.31;100333.00;5113859;28;20031;-79
2022/07/31 03:08:52;;;;;;;3.33;1.48;;;;;;;18.97;60.19;100339.00;5113491;28;19908;-79
2022/07/31 03:11:17;;;;;;;;;;;;;;;18.88;60.56;100334.63;5095468;28;20107;-79
2022/07/31 03:13:44;;;;;;;2.92;1.10;;;;;;;18.90;60.44;100335.03;5113754;28;19923;-79
2022/07/31 03:16:11;;;;;;;3.25;1.33;;;;;;;18.89;60.47;100335.44;5113227;28;20034;-79
2022/07/31 03:18:38;;;;;;;3.13;1.30;;;;;;;18.91;60.17;100333.88;5113458;28;20081;-80
2022/07/31 03:21:04;;;;;;;2.83;1.25;;;;;;;18.93;60.01;100337.03;5113440;28;20028;-79
2022/07/31 03:23:35;;;;;;;4.47;1.20;;;;;;;19.03;59.40;100331.97;5113688;28;20356;-80
2022/07/31 03:26:01;;;;;;;3.33;1.33;;;;;;;19.14;59.03;100335.53;5095022;28;20114;-80
2022/07/31 03:28:26;;;;;;;2.88;1.42;;;;;;;19.16;58.56;100334.00;5094976;28;20039;-80
2022/07/31 03:30:52;;;;;;;3.97;1.33;;;;;;;19.19;58.51;100324.16;5113043;28;20027;-80
2022/07/31 03:33:18;;;;;;;;;;;;;;;19.30;58.32;100324.19;5113695;28;20055;-80
2022/07/31 03:35:43;;;;;;;2.70;1.27;;;;;;;19.30;57.89;100333.25;5112814;28;20280;-79
2022/07/31 03:38:08;;;;;;;;;;;;;;;19.34;57.77;100334.06;5113666;28;20341;-80
2022/07/31 03:40:34;;;;;;;5.97;1.40;;;;;;;19.51;57.21;100335.31;5113188;28;19953;-79
2022/07/31 03:43:01;;;;;;;2.35;1.00;;;;;;;19.64;56.80;100330.22;5094953;28;20024;-79
2022/07/31 03:45:28;;;;;;;2.90;1.25;;;;;;;19.58;57.01;100337.34;5113540;28;20118;-79
2022/07/31 03:47:54;;;;;;;3.67;1.35;;;;;;;19.53;57.19;100328.22;5112894;28;20054;-79
2022/07/31 03:50:19;;;;;;;3.15;1.20;;;;;;;19.52;57.28;100328.63;5113193;28;20439;-79
2022/07/31 03:52:46;;;;;;;3.58;1.30;;;;;;;19.50;57.33;100326.25;5113198;28;20046;-79
2022/07/31 03:55:11;;;;;;;4.60;1.20;;;;;;;19.53;57.06;100333.75;5112420;28;20421;-79
2022/07/31 03:57:37;;;;;;;4.10;1.42;;;;;;;19.53;56.87;100330.97;5113063;28;20104;-79
2022/07/31 04:00:03;;;;;;;;;;;;;;;19.56;56.75;100328.66;5113186;28;20492;-79
2022/07/31 04:02:29;;;;;;;4.60;1.48;;;;;;;19.58;56.48;100334.56;5116854;28;19957;-79
2022/07/31 04:04:54;;;;;;;;;;;;;;;19.60;56.63;100330.22;5117361;28;20027;-80
2022/07/31 04:07:20;;;;;;;3.33;1.15;;;;;;;19.62;56.76;100338.91;5116926;28;19919;-80
2022/07/31 04:09:45;;;;;;;;;;;;;;;19.63;56.62;100339.72;5117518;28;20104;-79
2022/07/31 04:12:10;;;;;;;3.10;1.30;;;;;;;19.62;56.76;100341.69;5116881;28;19907;-79
2022/07/31 04:14:35;;;;;;;;;;;;;;;19.62;56.85;100344.44;5117228;28;20502;-79
2022/07/31 04:17:01;;;;;;;4.27;1.40;;;;;;;19.61;56.86;100336.56;5117056;28;19908;-79
2022/07/31 04:19:29;;;;;;;3.08;1.50;;;;;;;19.59;57.22;100339.69;5109776;28;20078;-80
2022/07/31 04:21:56;;;;;;;3.60;1.70;;;;;;;19.55;57.48;100341.66;5116553;28;20027;-80
2022/07/31 04:24:21;;;;;;;4.18;1.35;;;;;;;19.50;57.79;100330.97;5115584;28;20028;-79
2022/07/31 04:26:48;;;;;;;4.35;1.38;;;;;;;19.48;58.12;100330.56;5117125;28;20034;-79
2022/07/31 04:29:13;;;;;;;4.28;1.50;;;;;;;19.45;58.30;100328.56;5116472;28;20028;-80
2022/07/31 04:31:38;;;;;;;4.78;1.83;;;;;;;19.39;58.60;100330.94;5116530;28;20436;-79
2022/07/31 04:34:04;;;;;;;3.75;1.77;;;;;;;19.36;58.83;100337.25;5116695;28;20524;-79
2022/07/31 04:36:29;;;;;;;;;;;;;;;19.32;59.04;100333.69;5117210;28;20111;-81
2022/07/31 04:38:55;;;;;;;3.78;1.80;;;;;;;19.30;59.20;100340.75;5117191;28;19930;-79
2022/07/31 04:41:20;;;;;;;5.03;1.80;;;;;;;19.26;59.50;100337.19;5116272;28;20335;-80
2022/07/31 04:43:45;;;;;;;;;;;;;;;19.24;59.52;100337.56;5117588;28;20035;-80
2022/07/31 04:46:10;;;;;;;5.30;1.70;;;;;;;19.21;59.87;100335.59;5098394;28;19908;-79
2022/07/31 04:48:36;;;;;;;3.75;1.65;;;;;;;19.22;59.84;100337.19;5116544;28;20081;-80
2022/07/31 04:51:01;;;;;;;;;;;;;;;19.22;59.96;100339.94;5117043;28;20474;-79
2022/07/31 04:53:26;;;;;;;3.93;1.60;;;;;;;19.20;59.86;100339.53;5116105;28;20331;-79
2022/07/31 04:58:35;;;;;;;3.60;1.50;;;;;;;19.18;60.54;100337.16;5116005;28;20469;-79
2022/07/31 05:01:01;;;;;;;2.40;1.20;;;;;;;19.17;60.67;100338.34;5097855;28;20051;-80
2022/07/31 05:03:27;;;;;;;3.25;1.30;;;;;;;19.18;60.75;100336.38;5116075;28;20055;-80
2022/07/31 05:05:52;;;;;;;4.22;1.45;;;;;;;19.18;61.06;100341.91;5116433;28;20049;-80
2022/07/31 05:08:17;;;;;;;2.72;1.20;;;;;;;19.16;61.39;100350.56;5115875;28;20456;-78
2022/07/31 05:13:27;;;;;;;3.50;1.60;;;;;;;19.11;61.98;100345.41;5116254;28;19971;-81
2022/07/31 05:15:52;;;;;;;5.13;1.70;;;;;;;19.10;62.20;100349.34;5115982;28;20479;-80
2022/07/31 05:18:18;;;;;;;4.00;1.67;;;;;;;19.05;62.53;100343.41;5097448;28;20054;-82
2022/07/31 05:20:51;;;;;;;;;;;;;;;19.06;62.79;100345.78;5116221;28;20386;-81
2022/07/31 05:23:19;;;;;;;3.47;1.58;;;;;;;19.02;63.08;100344.19;5115907;28;19943;-82
2022/07/31 05:25:44;;;;;;;5.03;1.77;;;;;;;18.97;63.42;100342.56;5115697;28;20455;-81
2022/07/31 05:28:10;;;;;;;7.45;1.80;;;;;;;18.94;63.48;100344.13;5115679;28;20031;-81
2022/07/31 05:30:35;;;;;;;;;;;;;;;18.90;63.78;100337.00;5115907;28;20431;-80
2022/07/31 05:33:01;;;;;;;4.05;1.98;;;;;;;18.91;63.82;100344.91;5116106;28;19908;-81
2022/07/31 05:35:26;;;;;;;;;;;;;;;18.90;63.86;100348.84;5115821;28;20028;-81
2022/07/31 05:37:51;;;;;;;4.27;1.90;;;;;;;18.94;63.81;100341.38;5115374;28;19990;-82
2022/07/31 05:40:16;;;;;;;4.95;2.10;;;;;;;18.91;64.31;100353.19;5115324;28;20027;-81
2022/07/31 05:42:43;;;;;;;;;;;;;;;18.94;64.30;100354.38;5115499;28;20039;-80
2022/07/31 05:45:09;;;;;;;6.57;2.20;;;;;;;18.94;64.43;100357.91;5115200;28;19935;-81
2022/07/31 05:47:34;;;;;;;5.57;2.00;;;;;;;19.10;63.69;100356.81;5115428;28;20031;-81
2022/07/31 05:49:59;;;;;;;;;;;;;;;19.01;64.50;100361.91;5115453;28;20015;-81
2022/07/31 05:52:25;;;;;;;4.63;1.80;;;;;;;18.98;64.73;100351.63;5115426;28;20308;-82
2022/07/31 05:54:50;;;;;;;;;;;;;;;18.99;64.69;100356.00;5115644;28;20257;-81
2022/07/31 05:57:15;;;;;;;5.23;2.13;;;;;;;19.01;65.10;100356.41;5115094;28;20312;-81
2022/07/31 05:59:41;;;;;;;5.78;2.72;;;;;;;18.97;64.98;100337.03;5115058;28;20023;-81
2022/07/31 06:02:06;;;;;;;;;;;;;;;19.01;65.06;100348.13;5115138;28;20110;-80
2022/07/31 06:04:31;;;;;;;5.13;2.67;;;;;;;19.03;65.19;100354.03;5114592;28;19911;-81
2022/07/31 06:06:56;;;;;;;7.07;2.92;;;;;;;19.05;65.25;100354.44;5114937;28;20039;-80
2022/07/31 06:09:22;;;;;;;5.00;2.40;;;;;;;19.08;65.33;100354.44;5115014;28;20043;-81
2022/07/31 06:11:47;;;;;;;;;;;;;;;19.07;65.34;100347.34;5097087;28;20027;-81
2022/07/31 06:14:12;;;;;;;5.77;3.30;;;;;;;19.12;65.34;100346.19;5114507;28;19912;-81
2022/07/31 06:16:38;;;;;;;5.15;2.38;;;;;;;19.19;65.24;100354.53;5114571;28;20043;-80
2022/07/31 06:19:03;;;;;;;7.47;2.50;;;;;;;19.25;64.90;100341.91;5114722;28;20100;-80
2022/07/31 06:21:29;;;;;;;;;;;;;;;19.28;64.92;100346.66;5114995;28;20363;-80
2022/07/31 06:23:54;;;;;;;5.78;2.65;;;;;;;19.42;64.57;100345.94;5114205;28;19912;-81
2022/07/31 06:26:19;;;;;;;5.38;2.78;;;;;;;19.51;64.50;100343.59;5114545;28;20020;-81
2022/07/31 06:28:45;;;;;;;5.05;2.70;;;;;;;19.63;64.03;100334.19;5114587;28;20093;-80
2022/07/31 06:31:20;;;;;;;4.82;2.50;;;;;;;19.88;63.28;100346.09;5114463;28;20111;-81
2022/07/31 06:33:46;;;;;;;5.32;3.15;;;;;;;19.76;63.58;100352.78;5114127;28;20467;-81
2022/07/31 06:36:11;;;;;;;4.50;2.40;;;;;;;19.72;63.90;100348.44;5114102;28;20038;-82
2022/07/31 06:38:36;;;;;;;;;;;;;;;19.61;64.49;100350.34;5115101;28;20038;-81
2022/07/31 06:41:02;;;;;;;7.30;3.10;;;;;;;19.57;64.96;100352.31;5114304;28;19998;-82
2022/07/31 06:43:27;;;;;;;7.82;3.05;;;;;;;19.55;64.56;100351.94;5114213;28;20031;-81
2022/07/31 06:45:52;;;;;;;7.57;3.40;;;;;;;19.51;64.22;100347.16;5114059;28;20429;-82
2022/07/31 06:48:18;;;;;;;5.30;2.30;;;;;;;19.49;64.37;100345.97;5114072;28;20550;-81
2022/07/31 06:50:43;;;;;;;6.78;2.92;;;;;;;19.65;64.41;100342.88;5113748;28;20114;-81
2022/07/31 06:53:08;;;;;;;12.27;3.00;;;;;;;19.68;64.17;100342.09;5114394;28;20063;-81
2022/07/31 06:55:34;;;;;;;7.25;2.70;;;;;;;19.77;63.94;100346.06;5114515;28;20091;-82
2022/07/31 06:57:59;;;;;;;6.45;2.50;;;;;;;19.82;63.64;100347.66;5114436;28;20153;-82
2022/07/31 07:00:24;;;;;;;9.15;3.40;;;;;;;19.89;63.70;100342.16;5114005;28;20448;-80
2022/07/31 07:02:50;;;;;;;5.55;2.30;;;;;;;19.97;63.77;100343.72;5113853;28;20451;-80
2022/07/31 07:05:15;;;;;;;11.27;4.15;;;;;;;20.10;63.20;100341.38;5113967;28;20533;-80
2022/07/31 07:07:40;;;;;;;6.78;2.58;;;;;;;20.07;63.27;100342.16;5113566;28;20059;-80
2022/07/31 07:10:06;;;;;;;;;;;;;;;20.17;63.23;100344.16;5114055;28;20467;-80
2022/07/31 07:12:31;;;;;;;3.95;1.95;;;;;;;19.97;63.54;100331.88;5113829;28;20278;-81
2022/07/31 07:14:57;;;;;;;6.65;2.00;;;;;;;19.90;63.79;100337.41;5114155;28;20463;-81
2022/07/31 07:17:22;;;;;;;5.03;2.45;;;;;;;19.71;64.54;100336.59;5095539;28;20067;-81
2022/07/31 07:19:47;;;;;;;2.67;1.30;;;;;;;19.70;65.01;100345.28;5113708;28;20142;-80
2022/07/31 07:22:13;;;;;;;4.30;1.70;;;;;;;19.56;65.94;100346.00;5113243;28;20427;-80
2022/07/31 07:24:38;;;;;;;3.85;1.70;;;;;;;19.52;66.58;100340.44;5113499;28;20431;-81
2022/07/31 07:27:03;;;;;;;;;;;;;;;19.48;67.50;100339.66;5114157;28;20027;-80
2022/07/31 07:29:29;;;;;;;3.28;1.63;;;;;;;19.42;67.88;100343.94;5113153;28;19912;-81
2022/07/31 07:31:55;;;;;;;3.42;1.48;;;;;;;19.40;68.28;100340.78;5095095;28;20416;-80
2022/07/31 07:34:20;;;;;;;;;;;;;;;19.37;68.96;100338.81;5113734;28;20388;-80
2022/07/31 07:36:45;;;;;;;3.43;1.33;;;;;;;19.32;69.07;100333.69;5112408;28;19935;-78
2022/07/31 07:39:11;;;;;;;4.85;1.60;;;;;;;19.36;69.27;100341.97;5113208;28;20458;-78
2022/07/31 07:41:37;;;;;;;5.78;1.42;;;;;;;19.44;69.01;100330.53;5112862;28;20034;-78
2022/07/31 07:44:02;;;;;;;;;;;;;;;19.38;70.05;100325.81;5095308;28;20053;-78
2022/07/31 07:46:28;;;;;;;4.32;1.77;;;;;;;19.41;70.04;100328.56;5113239;28;19918;-79
2022/07/31 07:48:54;;;;;;;4.00;1.58;;;;;;;19.45;70.12;100318.31;5112986;28;20128;-80
2022/07/31 07:51:19;;;;;;;;;;;;;;;19.45;69.86;100321.09;5095184;28;20086;-79
2022/07/31 07:53:45;;;;;;;3.97;1.40;;;;;;;19.46;69.26;100319.09;5112591;28;19915;-78
2022/07/31 07:56:10;;;;;;;5.10;1.80;;;;;;;19.50;68.46;100315.19;5113089;28;20047;-81
2022/07/31 07:58:36;;;;;;;;;;;;;;;19.46;68.51;100313.59;5113382;28;20070;-77
2022/07/31 08:01:01;;;;;;;5.30;1.50;;;;;;;19.57;67.93;100327.47;5112496;28;20389;-78
2022/07/31 08:03:26;;;;;;;6.25;1.70;;;;;;;19.55;68.35;100321.53;5112740;28;20031;-79
2022/07/31 08:05:51;;;;;;;;;;;;;;;19.75;68.15;100317.25;5112945;28;20478;-78
2022/07/31 08:08:17;;;;;;;3.17;1.37;;;;;;;19.52;68.66;100315.59;5112446;28;19918;-77
2022/07/31 08:10:42;;;;;;;;;;;;;;;19.61;68.03;100318.00;5113229;28;20261;-78
2022/07/31 08:13:07;;;;;;;3.63;1.97;;;;;;;19.55;68.11;100311.28;5112953;28;20384;-77
2022/07/31 08:15:33;;;;;;;;;;;;;;;19.50;68.18;100309.69;5113234;28;20258;-78
2022/07/31 08:17:58;;;;;;;4.65;1.52;;;;;;;19.44;68.68;100304.91;5112673;28;19961;-78
2022/07/31 08:20:23;;;;;;;4.60;1.45;;;;;;;19.42;68.99;100310.81;5112427;28;20034;-79
2022/07/31 08:22:52;;;;;;;;;;;;;;;19.41;69.04;100300.97;5112770;28;20081;-77
2022/07/31 08:25:17;;;;;;;3.70;1.60;;;;;;;19.44;68.43;100300.16;5112991;28;20271;-78
2022/07/31 08:27:43;;;;;;;5.20;1.30;;;;;;;19.35;69.35;100316.34;5112576;28;20444;-77
2022/07/31 08:30:08;;;;;;;;;;;;;;;19.38;69.50;100307.25;5113103;28;20027;-78
2022/07/31 08:32:34;;;;;;;4.82;1.75;;;;;;;19.41;69.82;100311.22;5112610;28;19919;-79
2022/07/31 08:34:59;;;;;;;4.00;1.30;;;;;;;19.38;70.18;100312.78;5112974;28;20387;-79
2022/07/31 08:37:24;;;;;;;;;;;;;;;19.51;70.10;100319.53;5113169;28;20023;-78
2022/07/31 08:39:50;;;;;;;3.40;1.00;;;;;;;19.59;70.64;100317.59;5112420;28;20003;-78
2022/07/31 08:42:16;;;;;;;;;;;;;;;19.62;70.72;100316.81;5112289;28;20641;-80
2022/07/31 08:44:43;;;;;;;2.80;1.30;;;;;;;19.55;71.08;100319.56;5112161;28;19912;-78
2022/07/31 08:47:14;;;;;;;3.72;1.40;;;;;;;19.50;71.46;100326.25;5113573;28;20494;-78
2022/07/31 08:49:42;;;;;;;3.08;1.25;;;;;;;19.49;71.45;100327.44;5116218;28;20056;-78
2022/07/31 08:52:09;;;;;;;3.03;1.20;;;;;;;19.62;71.21;100327.06;5116210;28;20055;-78
2022/07/31 08:54:35;;;;;;;2.88;1.10;;;;;;;19.61;71.46;100319.97;5116415;28;20184;-78
2022/07/31 08:57:02;;;;;;;2.72;1.27;;;;;;;19.68;71.19;100326.31;5096993;28;20042;-78
2022/07/31 08:59:27;;;;;;;3.67;1.42;;;;;;;19.69;71.05;100321.59;5116191;28;20471;-78
2022/07/31 09:01:55;;;;;;;2.15;1.00;;;;;;;19.87;70.92;100314.13;5097867;28;20027;-78
2022/07/31 09:04:22;;;;;;;3.42;1.48;;;;;;;19.96;70.40;100319.25;5115805;28;20031;-78
2022/07/31 09:06:47;;;;;;;2.50;1.08;;;;;;;20.10;70.23;100324.78;5116254;28;20462;-78
2022/07/31 09:09:15;;;;;;;3.25;1.17;;;;;;;19.98;70.52;100317.66;5097655;28;20027;-78
2022/07/31 09:11:53;;;;;;;3.17;1.33;;;;;;;20.14;70.06;100309.78;5115684;28;20042;-78
2022/07/31 09:14:27;;;;;;;2.85;1.40;;;;;;;20.09;71.00;100309.41;5115706;28;20092;-78
2022/07/31 09:16:55;;;;;;;3.75;1.65;;;;;;;20.19;70.48;100310.59;5116009;28;20466;-81
2022/07/31 09:19:22;;;;;;;3.95;1.55;;;;;;;20.14;71.01;100304.25;5107298;28;20051;-79
2022/07/31 09:21:48;;;;;;;2.67;1.15;;;;;;;20.04;71.38;100310.59;5136681;27;20023;-80
2022/07/31 09:24:29;;;;;;;4.25;1.20;;;;;;;20.12;71.22;100301.09;5136513;27;20359;-83
2022/07/31 09:27:08;;;;;;;3.22;1.10;;;;;;;20.12;70.52;100308.59;5135951;27;20031;-76
2022/07/31 09:29:40;;;;;;;3.67;1.55;;;;;;;20.18;69.79;100303.50;5136115;27;20490;-77
2022/07/31 09:32:17;;;;;;;3.85;1.45;;;;;;;20.17;70.14;100304.66;5136270;27;20027;-76
2022/07/31 09:34:44;;;;;;;3.80;1.60;;;;;;;20.23;69.99;100300.31;5135607;27;20373;-77
2022/07/31 09:37:14;;;;;;;4.63;1.30;;;;;;;20.28;69.84;100316.50;5117405;27;20488;-75
2022/07/31 09:39:40;;;;;;;4.15;1.20;;;;;;;20.32;69.60;100317.28;5136222;27;20072;-76
2022/07/31 09:42:06;;;;;;;2.72;1.20;;;;;;;20.34;69.80;100312.16;5136194;27;20434;-75
2022/07/31 09:44:37;;;;;;;4.32;1.60;;;;;;;20.39;69.50;100317.28;5117435;27;20019;-76
2022/07/31 09:47:03;;;;;;;3.35;1.30;;;;;;;20.24;69.72;100307.44;5136170;27;20035;-75
2022/07/31 09:49:30;;;;;;;7.90;1.75;;;;;;;20.12;70.36;100312.16;5135505;27;20035;-76
2022/07/31 09:51:56;;;;;;;2.72;1.23;;;;;;;20.11;70.28;100302.28;5135440;27;20055;-75
2022/07/31 09:54:23;;;;;;;3.65;1.58;;;;;;;20.05;70.34;100305.84;5135626;27;20435;-75
2022/07/31 09:56:49;;;;;;;2.90;1.10;;;;;;;20.12;70.28;100305.84;5135825;27;20027;-75
2022/07/31 09:59:15;;;;;;;2.83;1.10;;;;;;;20.17;70.40;100312.97;5134760;27;20076;-74
2022/07/31 10:01:41;;;;;;;3.33;1.40;;;;;;;20.21;70.37;100313.75;5135631;27;20035;-75
2022/07/31 10:04:11;;;;;;;4.10;1.48;;;;;;;20.23;70.41;100311.38;5117108;27;20034;-75
2022/07/31 10:06:38;;;;;;;2.63;1.00;;;;;;;20.27;70.28;100307.41;5117178;27;20054;-75
2022/07/31 10:09:05;;;;;;;3.10;1.27;;;;;;;20.54;69.64;100304.28;5135237;27;20091;-75
2022/07/31 10:11:31;;;;;;;4.60;1.30;;;;;;;20.54;68.91;100296.75;5135830;27;20115;-77
2022/07/31 10:14:01;;;;;;;3.25;1.10;;;;;;;20.57;68.72;100304.25;5135183;27;20062;-76
2022/07/31 10:16:31;;;;;;;2.88;1.10;;;;;;;20.63;68.75;100297.13;5135454;27;20045;-76
2022/07/31 10:19:00;;;;;;;3.17;1.20;;;;;;;20.63;69.26;100301.88;5135208;27;20101;-76
2022/07/31 10:21:32;;;;;;;2.72;1.20;;;;;;;20.70;68.90;100296.34;5135413;27;20023;-76
2022/07/31 10:23:59;;;;;;;4.05;1.00;;;;;;;20.87;68.33;100294.72;5135041;27;20027;-76
2022/07/31 10:26:25;;;;;;;3.70;1.25;;;;;;;20.95;68.42;100283.19;5135039;27;20439;-76
2022/07/31 10:28:51;;;;;;;2.75;1.00;;;;;;;20.98;67.75;100289.91;5116850;27;20110;-76
2022/07/31 10:31:17;;;;;;;2.50;1.05;;;;;;;20.85;67.59;100286.03;5134810;27;20019;-75
2022/07/31 10:33:44;;;;;;;2.85;1.20;;;;;;;20.86;67.79;100282.84;5116507;27;20458;-76
2022/07/31 10:36:24;;;;;;;2.92;1.33;;;;;;;20.90;68.17;100277.31;5135422;27;20058;-75
2022/07/31 10:38:53;;;;;;;4.22;1.25;;;;;;;20.92;67.94;100281.25;5134956;27;20027;-76
2022/07/31 10:41:30;;;;;;;3.95;1.30;;;;;;;20.98;67.94;100274.09;5116477;27;20059;-75
2022/07/31 10:43:59;;;;;;;2.92;1.20;;;;;;;21.11;67.62;100274.44;5116398;27;20027;-76
2022/07/31 10:46:29;;;;;;;3.92;1.40;;;;;;;21.09;67.44;100267.75;5116312;27;20370;-76
2022/07/31 10:48:58;;;;;;;2.95;1.02;;;;;;;21.40;67.19;100266.03;5134618;27;20067;-76
2022/07/31 10:51:25;;;;;;;4.30;1.95;;;;;;;21.54;64.70;100266.75;5134483;27;20035;-77
2022/07/31 10:54:02;;;;;;;2.63;1.17;;;;;;;21.59;65.95;100266.31;5134583;27;20027;-75
2022/07/31 10:56:38;;;;;;;2.65;1.17;;;;;;;21.73;65.28;100261.88;5134539;27;20423;-76
2022/07/31 10:59:04;;;;;;;2.92;1.20;;;;;;;21.77;64.68;100271.72;5134277;27;20063;-76
2022/07/31 11:01:30;;;;;;;4.18;1.58;;;;;;;21.82;63.62;100268.50;5134227;27;20423;-75
2022/07/31 11:04:00;;;;;;;3.13;1.30;;;;;;;21.81;63.62;100264.16;5116127;27;20063;-75
2022/07/31 11:06:38;;;;;;;4.10;1.35;;;;;;;21.85;63.85;100258.63;5134259;27;20331;-76
2022/07/31 11:09:07;;;;;;;3.17;1.30;;;;;;;22.05;63.53;100253.34;5134305;27;20030;-76
2022/07/31 11:11:34;;;;;;;3.50;1.58;;;;;;;22.29;62.82;100262.63;5134286;27;20030;-77
2022/07/31 11:14:00;;;;;;;2.90;1.00;;;;;;;22.36;62.96;100265.34;5134178;27;20039;-74
2022/07/31 11:16:27;;;;;;;3.03;1.25;;;;;;;22.32;62.94;100259.81;5134214;27;20038;-75
2022/07/31 11:19:09;;;;;;;3.70;1.17;;;;;;;22.15;64.14;100256.00;5133844;27;20035;-75
2022/07/31 11:21:40;;;;;;;2.60;1.02;;;;;;;22.23;63.82;100262.28;5134275;27;20450;-75
2022/07/31 11:24:24;;;;;;;3.10;1.30;;;;;;;22.09;63.44;100263.19;5133980;27;20031;-75
2022/07/31 11:26:54;;;;;;;2.33;1.20;;;;;;;22.01;63.57;100256.13;5134046;27;20458;-76
2022/07/31 11:29:27;;;;;;;3.00;1.33;;;;;;;22.11;63.51;100262.78;5134016;27;20108;-75
2022/07/31 11:31:53;;;;;;;3.00;1.10;;;;;;;22.21;63.24;100261.91;5133872;27;20058;-76
2022/07/31 11:34:18;;;;;;;3.60;1.13;;;;;;;22.33;63.17;100250.28;5133886;27;20100;-76
2022/07/31 11:36:44;;;;;;;2.63;1.20;;;;;;;22.31;63.13;100258.22;5133949;27;20057;-76
2022/07/31 11:39:11;;;;;;;2.70;1.30;;;;;;;22.26;63.36;100257.91;5133616;27;20457;-75